createdAt,value
2016-06-12T09:42:00.773Z,69.64
2016-06-12T09:43:00.714Z,69.64
2016-06-12T09:44:00.702Z,69.54
2016-06-12T09:45:00.689Z,70.12
2016-06-12T09:46:00.692Z,69.57
2016-06-12T09:47:00.680Z,69.35
2016-06-12T09:48:00.667Z,69.45
2016-06-12T09:49:00.467Z,69.54
2016-06-12T09:50:00.454Z,69.93
2016-06-12T09:51:00.458Z,69.93
2016-06-12T09:52:00.507Z,69.83
2016-06-12T09:53:00.448Z,69.54
2016-06-12T09:54:00.233Z,69.57
2016-06-12T09:55:00.236Z,69.77
2016-06-12T09:56:00.222Z,69.57
2016-06-12T09:57:00.632Z,69.38
2016-06-12T09:58:00.417Z,68.8
2016-06-12T09:59:00.217Z,69.19
2016-06-12T10:00:00.220Z,68.61
2016-06-12T10:01:00.426Z,68.61
2016-06-12T10:02:00.413Z,68.52
2016-06-12T10:03:00.619Z,68.42
2016-06-12T10:04:00.404Z,68.61
2016-06-12T10:05:00.594Z,68.71
2016-06-12T10:06:00.395Z,68.23
2016-06-12T10:07:01.194Z,68.32
2016-06-12T10:08:00.603Z,67.84
2016-06-12T10:09:00.404Z,67.58
2016-06-12T10:10:00.204Z,67.49
2016-06-12T10:11:00.393Z,67.2
2016-06-12T10:12:00.194Z,67.3
2016-06-12T10:13:00.400Z,67.3
2016-06-12T10:14:00.591Z,66.91
2016-06-12T10:15:00.594Z,66.62
2016-06-12T10:16:00.597Z,67
2016-06-12T10:17:00.584Z,66.62
2016-06-12T10:18:00.384Z,66.36
2016-06-12T10:19:00.185Z,66.36
2016-06-12T10:20:00.375Z,66.56
2016-06-12T10:21:00.581Z,66.27
2016-06-12T10:22:00.382Z,66.36
2016-06-12T10:23:00.588Z,66.56
2016-06-12T10:24:00.369Z,66.27
2016-06-12T10:25:00.594Z,66.17
2016-06-12T10:26:00.581Z,65.59
2016-06-12T10:27:00.581Z,65.88
2016-06-12T10:28:00.381Z,65.5
2016-06-12T10:29:00.571Z,65.69
2016-06-12T10:30:00.574Z,65.14
2016-06-12T10:31:00.577Z,65.53
2016-06-12T10:32:00.378Z,65.53
2016-06-12T10:33:00.381Z,65.24
2016-06-12T10:34:00.384Z,65.43
2016-06-12T10:35:00.183Z,64.76
2016-06-12T10:36:00.578Z,65.14
2016-06-12T10:37:00.378Z,64.95
2016-06-12T10:38:00.209Z,65.34
2016-06-12T10:39:00.368Z,64.66
2016-06-12T10:40:00.371Z,64.76
2016-06-12T10:41:00.390Z,64.69
2016-06-12T10:42:00.627Z,64.66
2016-06-12T10:43:00.583Z,64.47
2016-06-12T10:44:00.367Z,64.4
2016-06-12T10:45:00.167Z,64.4
2016-06-12T10:46:00.373Z,64.4
2016-06-12T10:47:00.376Z,64.31
2016-06-12T10:48:00.583Z,64.4
2016-06-12T10:49:00.383Z,64.59
2016-06-12T10:50:00.386Z,64.01
2016-06-12T10:51:00.388Z,64.11
2016-06-12T10:52:00.377Z,63.92
2016-06-12T10:53:00.942Z,64.01
2016-06-12T10:54:00.179Z,64.11
2016-06-12T10:55:00.370Z,63.82
2016-06-12T10:56:00.436Z,63.92
2016-06-12T10:57:00.423Z,63.73
2016-06-12T10:58:00.582Z,63.95
2016-06-12T10:59:00.383Z,63.92
2016-06-12T11:00:00.588Z,63.66
2016-06-12T11:01:00.388Z,63.53
2016-06-12T11:02:00.391Z,63.76
2016-06-12T11:03:00.583Z,63.47
2016-06-12T11:04:00.383Z,63.56
2016-06-12T11:05:00.588Z,63.28
2016-06-12T11:06:00.185Z,63.18
2016-06-12T11:07:00.595Z,63.56
2016-06-12T11:08:00.175Z,63.18
2016-06-12T11:09:00.398Z,62.98
2016-06-12T11:10:00.588Z,63.28
2016-06-12T11:11:00.388Z,63.08
2016-06-12T11:12:00.391Z,62.98
2016-06-12T11:13:00.597Z,62.98
2016-06-12T11:14:00.600Z,62.89
2016-06-12T11:15:00.401Z,62.98
2016-06-12T11:16:00.404Z,62.89
2016-06-12T11:17:00.594Z,62.98
2016-06-12T11:18:00.597Z,62.98
2016-06-12T11:19:00.599Z,62.89
2016-06-12T11:20:00.400Z,63.08
2016-06-12T11:21:00.606Z,62.98
2016-06-12T11:22:00.609Z,62.98
2016-06-12T11:23:00.847Z,62.89
2016-06-12T11:24:00.397Z,62.89
2016-06-12T11:25:00.243Z,62.79
2016-06-12T11:26:00.606Z,63.08
2016-06-12T11:27:00.609Z,62.7
2016-06-12T11:28:00.409Z,62.79
2016-06-12T11:29:00.412Z,62.89
2016-06-12T11:30:00.619Z,62.79
2016-06-12T11:31:00.605Z,62.6
2016-06-12T11:32:00.405Z,62.92
2016-06-12T11:33:00.612Z,62.53
2016-06-12T11:34:00.412Z,62.92
2016-06-12T11:35:00.618Z,62.53
2016-06-12T11:36:00.215Z,62.6
2016-06-12T11:37:00.202Z,62.34
2016-06-12T11:38:00.206Z,62.24
2016-06-12T11:39:00.412Z,62.24
2016-06-12T11:40:00.415Z,62.24
2016-06-12T11:41:00.418Z,62.15
2016-06-12T11:42:00.467Z,62.53
2016-06-12T11:43:00.220Z,62.63
2016-06-12T11:44:00.630Z,62.44
2016-06-12T11:45:00.633Z,62.24
2016-06-12T11:46:00.621Z,62.15
2016-06-12T11:47:00.421Z,62.34
2016-06-12T11:48:00.627Z,62.24
2016-06-12T11:49:00.427Z,62.44
2016-06-12T11:50:00.633Z,62.53
2016-06-12T11:51:00.448Z,62.24
2016-06-12T11:52:00.436Z,62.53
2016-06-12T11:53:00.861Z,62.44
2016-06-12T11:54:00.630Z,62.15
2016-06-12T11:55:00.429Z,61.95
2016-06-12T11:56:00.636Z,61.86
2016-06-12T11:57:00.639Z,61.95
2016-06-12T11:58:00.438Z,62.08
2016-06-12T11:59:00.644Z,61.86
2016-06-12T12:00:00.445Z,62.05
2016-06-12T12:01:00.433Z,61.95
2016-06-12T12:02:00.436Z,61.76
2016-06-12T12:03:00.642Z,61.79
2016-06-12T12:04:00.442Z,61.69
2016-06-12T12:05:00.241Z,61.69
2016-06-12T12:06:00.448Z,62.08
2016-06-12T12:07:00.451Z,62.18
2016-06-12T12:08:00.454Z,61.6
2016-06-12T12:09:00.238Z,61.5
2016-06-12T12:10:00.444Z,61.79
2016-06-12T12:11:00.651Z,61.69
2016-06-12T12:12:00.450Z,61.6
2016-06-12T12:13:00.656Z,62.27
2016-06-12T12:14:00.660Z,61.69
2016-06-12T12:15:00.460Z,61.5
2016-06-12T12:16:00.244Z,61.4
2016-06-12T12:17:00.451Z,61.89
2016-06-12T12:18:00.453Z,61.4
2016-06-12T12:19:00.456Z,61.98
2016-06-12T12:20:00.460Z,61.6
2016-06-12T12:21:00.463Z,61.98
2016-06-12T12:22:00.466Z,61.4
2016-06-12T12:23:00.360Z,61.79
2016-06-12T12:24:00.660Z,61.5
2016-06-12T12:25:00.459Z,61.3
2016-06-12T12:26:00.463Z,61.69
2016-06-12T12:27:00.684Z,61.5
2016-06-12T12:28:00.468Z,61.5
2016-06-12T12:29:00.269Z,61.3
2016-06-12T12:30:00.693Z,61.21
2016-06-12T12:31:00.275Z,61.21
2016-06-12T12:32:00.482Z,61.6
2016-06-12T12:33:00.468Z,61.11
2016-06-12T12:34:00.691Z,61.21
2016-06-12T12:35:00.475Z,61.6
2016-06-12T12:36:00.680Z,61.21
2016-06-12T12:37:00.480Z,61.5
2016-06-12T12:38:00.139Z,61.5
2016-06-12T12:39:00.689Z,61.4
2016-06-12T12:40:00.490Z,61.3
2016-06-12T12:41:00.493Z,61.21
2016-06-12T12:42:00.698Z,61.6
2016-06-12T12:43:00.702Z,61.3
2016-06-12T12:44:00.705Z,61.11
2016-06-12T12:45:00.522Z,61.24
2016-06-12T12:46:00.492Z,61.4
2016-06-12T12:47:00.714Z,61.21
2016-06-12T12:48:00.702Z,61.21
2016-06-12T12:49:00.705Z,61.33
2016-06-12T12:50:00.302Z,61.21
2016-06-12T12:51:00.508Z,61.24
2016-06-12T12:52:00.511Z,61.3
2016-06-12T12:53:00.952Z,61.21
2016-06-12T12:54:00.377Z,61.43
2016-06-12T12:55:00.302Z,61.3
2016-06-12T12:56:00.305Z,61.5
2016-06-12T12:57:00.511Z,61.33
2016-06-12T12:58:00.514Z,61.33
2016-06-12T12:59:00.720Z,61.72
2016-06-12T13:00:00.302Z,61.53
2016-06-12T13:01:00.710Z,61.24
2016-06-12T13:02:00.511Z,61.72
2016-06-12T13:03:00.514Z,61.33
2016-06-12T13:04:00.313Z,61.72
2016-06-12T13:05:00.722Z,61.24
2016-06-12T13:06:00.726Z,61.63
2016-06-12T13:07:00.525Z,61.92
2016-06-12T13:08:00.529Z,61.72
2016-06-12T13:09:00.579Z,61.33
2016-06-12T13:10:00.738Z,61.24
2016-06-12T13:11:00.538Z,61.72
2016-06-12T13:12:00.527Z,61.24
2016-06-12T13:13:00.732Z,61.05
2016-06-12T13:14:00.735Z,61.63
2016-06-12T13:15:00.738Z,61.72
2016-06-12T13:16:00.538Z,61.63
2016-06-12T13:17:00.384Z,61.33
2016-06-12T13:18:00.545Z,61.33
2016-06-12T13:19:00.548Z,61.33
2016-06-12T13:20:00.551Z,61.72
2016-06-12T13:21:00.554Z,61.24
2016-06-12T13:22:00.744Z,61.72
2016-06-12T13:23:01.138Z,61.72
2016-06-12T13:24:00.625Z,61.33
2016-06-12T13:25:00.551Z,61.72
2016-06-12T13:26:00.756Z,61.05
2016-06-12T13:27:00.556Z,61.24
2016-06-12T13:28:00.357Z,61.24
2016-06-12T13:29:00.546Z,61.24
2016-06-12T13:30:00.362Z,61.15
2016-06-12T13:31:00.413Z,61.33
2016-06-12T13:32:00.368Z,61.33
2016-06-12T13:33:00.558Z,61.24
2016-06-12T13:34:00.765Z,61.24
2016-06-12T13:35:00.565Z,61.33
2016-06-12T13:36:00.567Z,61.33
2016-06-12T13:37:00.774Z,61.33
2016-06-12T13:38:01.012Z,61.24
2016-06-12T13:39:00.797Z,61.33
2016-06-12T13:40:00.581Z,61.33
2016-06-12T13:41:00.583Z,61.24
2016-06-12T13:42:00.368Z,61.24
2016-06-12T13:43:00.574Z,61.24
2016-06-12T13:44:00.577Z,61.15
2016-06-12T13:45:00.784Z,61.15
2016-06-12T13:46:00.584Z,61.33
2016-06-12T13:47:00.587Z,61.24
2016-06-12T13:48:00.418Z,61.24
2016-06-12T13:49:00.592Z,61.24
2016-06-12T13:50:00.377Z,61.33
2016-06-12T13:51:00.786Z,61.24
2016-06-12T13:52:00.384Z,61.33
2016-06-12T13:53:00.589Z,61.33
2016-06-12T13:54:01.342Z,61.33
2016-06-12T13:55:00.799Z,61.33
2016-06-12T13:56:00.599Z,61.15
2016-06-12T13:57:00.398Z,61.33
2016-06-12T13:58:00.589Z,61.33
2016-06-12T13:59:00.452Z,61.24
2016-06-12T14:00:00.595Z,61.15
2016-06-12T14:01:00.411Z,61.24
2016-06-12T14:02:00.820Z,61.24
2016-06-12T14:03:00.604Z,61.24
2016-06-12T14:04:00.607Z,61.72
2016-06-12T14:05:00.610Z,61.33
2016-06-12T14:06:00.613Z,61.43
2016-06-12T14:07:00.616Z,61.33
2016-06-12T14:08:01.057Z,61.24
2016-06-12T14:09:01.029Z,61.24
2016-06-12T14:10:00.423Z,61.43
2016-06-12T14:11:00.816Z,61.24
2016-06-12T14:12:00.616Z,61.15
2016-06-12T14:13:00.634Z,61.43
2016-06-12T14:14:00.638Z,61.53
2016-06-12T14:15:00.829Z,61.63
2016-06-12T14:16:00.426Z,61.53
2016-06-12T14:17:00.835Z,61.53
2016-06-12T14:18:00.635Z,61.82
2016-06-12T14:19:00.622Z,62.21
2016-06-12T14:20:00.828Z,61.72
2016-06-12T14:21:00.441Z,61.82
2016-06-12T14:22:00.647Z,62.11
2016-06-12T14:23:00.915Z,62.21
2016-06-12T14:24:00.873Z,62.21
2016-06-12T14:25:00.437Z,62.01
2016-06-12T14:26:00.643Z,62.11
2016-06-12T14:27:00.850Z,61.82
2016-06-12T14:28:00.853Z,61.82
2016-06-12T14:29:00.856Z,61.82
2016-06-12T14:30:00.858Z,61.82
2016-06-12T14:31:00.659Z,62.21
2016-06-12T14:32:00.662Z,61.92
2016-06-12T14:33:00.869Z,62.01
2016-06-12T14:34:00.654Z,62.21
2016-06-12T14:35:00.859Z,62.01
2016-06-12T14:36:00.675Z,62.5
2016-06-12T14:37:00.663Z,62.5
2016-06-12T14:38:00.665Z,62.21
2016-06-12T14:39:00.934Z,62.21
2016-06-12T14:40:00.672Z,62.3
2016-06-12T14:41:00.658Z,62.3
2016-06-12T14:42:00.881Z,62.3
2016-06-12T14:43:00.665Z,62.21
2016-06-12T14:44:00.871Z,62.21
2016-06-12T14:45:00.671Z,62.3
2016-06-12T14:46:00.877Z,62.3
2016-06-12T14:47:00.880Z,62.21
2016-06-12T14:48:00.478Z,62.3
2016-06-12T14:49:00.480Z,62.5
2016-06-12T14:50:00.889Z,62.4
2016-06-12T14:51:00.893Z,62.4
2016-06-12T14:52:00.489Z,62.5
2016-06-12T14:53:00.883Z,62.59
2016-06-12T14:54:00.902Z,62.66
2016-06-12T14:55:00.499Z,62.59
2016-06-12T14:56:00.689Z,62.98
2016-06-12T14:57:00.895Z,62.85
2016-06-12T14:58:00.492Z,62.95
2016-06-12T14:59:00.901Z,62.76
2016-06-12T15:00:00.904Z,62.79
2016-06-12T15:01:00.907Z,62.95
2016-06-12T15:02:00.723Z,63.14
2016-06-12T15:03:00.711Z,62.85
2016-06-12T15:04:00.713Z,63.14
2016-06-12T15:05:00.701Z,62.95
2016-06-12T15:06:00.704Z,63.14
2016-06-12T15:07:00.504Z,63.14
2016-06-12T15:08:00.914Z,63.05
2016-06-12T15:09:00.714Z,63.05
2016-06-12T15:10:00.920Z,63.05
2016-06-12T15:11:00.923Z,63.05
2016-06-12T15:12:00.926Z,63.05
2016-06-12T15:13:00.726Z,63.05
2016-06-12T15:14:00.916Z,63.14
2016-06-12T15:15:00.919Z,63.14
2016-06-12T15:16:00.516Z,63.14
2016-06-12T15:17:00.519Z,63.05
2016-06-12T15:18:00.741Z,63.34
2016-06-12T15:19:00.729Z,63.43
2016-06-12T15:20:00.935Z,63.14
2016-06-12T15:21:00.938Z,63.24
2016-06-12T15:22:00.738Z,63.14
2016-06-12T15:23:00.725Z,63.43
2016-06-12T15:24:00.853Z,63.63
2016-06-12T15:25:00.528Z,63.63
2016-06-12T15:26:00.953Z,63.43
2016-06-12T15:27:00.737Z,63.43
2016-06-12T15:28:00.740Z,63.43
2016-06-12T15:29:00.540Z,63.34
2016-06-12T15:30:00.746Z,63.82
2016-06-12T15:31:00.954Z,63.43
2016-06-12T15:32:00.738Z,64.11
2016-06-12T15:33:00.756Z,63.53
2016-06-12T15:34:00.963Z,63.63
2016-06-12T15:35:00.544Z,63.73
2016-06-12T15:36:00.953Z,63.53
2016-06-12T15:37:00.972Z,63.73
2016-06-12T15:38:00.959Z,63.6
2016-06-12T15:39:01.712Z,63.69
2016-06-12T15:40:00.965Z,63.69
2016-06-12T15:41:00.780Z,63.89
2016-06-12T15:42:00.549Z,63.79
2016-06-12T15:43:00.756Z,63.98
2016-06-12T15:44:00.774Z,63.79
2016-06-12T15:45:00.574Z,63.69
2016-06-12T15:46:00.967Z,64.08
2016-06-12T15:47:00.565Z,63.79
2016-06-12T15:48:00.771Z,63.89
2016-06-12T15:49:00.571Z,64.08
2016-06-12T15:50:00.980Z,64.08
2016-06-12T15:51:00.983Z,63.89
2016-06-12T15:52:00.783Z,64.08
2016-06-12T15:53:00.974Z,64.08
2016-06-12T15:54:01.274Z,64.18
2016-06-12T15:55:00.792Z,63.98
2016-06-12T15:56:00.983Z,63.89
2016-06-12T15:57:00.579Z,64.27
2016-06-12T15:58:00.989Z,64.08
2016-06-12T15:59:00.804Z,63.98
2016-06-12T16:00:00.980Z,63.98
2016-06-12T16:01:00.795Z,63.98
2016-06-12T16:02:00.985Z,63.98
2016-06-12T16:03:00.989Z,63.89
2016-06-12T16:04:00.805Z,63.98
2016-06-12T16:05:00.839Z,63.98
2016-06-12T16:06:00.795Z,63.89
2016-06-12T16:07:00.799Z,63.98
2016-06-12T16:08:00.598Z,63.98
2016-06-12T16:09:01.288Z,63.98
2016-06-12T16:10:00.807Z,64.08
2016-06-12T16:11:01.014Z,64.18
2016-06-12T16:12:00.814Z,64.18
2016-06-12T16:13:01.004Z,64.37
2016-06-12T16:14:00.804Z,64.18
2016-06-12T16:15:00.806Z,64.08
2016-06-12T16:16:01.013Z,64.18
2016-06-12T16:17:01.015Z,64.37
2016-06-12T16:18:01.019Z,64.66
2016-06-12T16:19:01.022Z,64.47
2016-06-12T16:20:00.604Z,64.66
2016-06-12T16:21:00.810Z,64.37
2016-06-12T16:22:01.031Z,64.47
2016-06-12T16:23:01.019Z,64.37
2016-06-12T16:24:01.382Z,64.66
2016-06-12T16:25:01.025Z,64.76
2016-06-12T16:26:01.028Z,64.56
2016-06-12T16:27:00.610Z,64.56
2016-06-12T16:28:00.612Z,64.56
2016-06-12T16:29:00.819Z,64.47
2016-06-12T16:30:00.822Z,64.47
2016-06-12T16:31:01.028Z,64.47
2016-06-12T16:32:00.625Z,64.37
2016-06-12T16:33:00.628Z,64.47
2016-06-12T16:34:00.631Z,64.56
2016-06-12T16:35:00.634Z,64.37
2016-06-12T16:36:00.841Z,64.37
2016-06-12T16:37:00.843Z,64.56
2016-06-12T16:38:00.628Z,64.56
2016-06-12T16:39:00.631Z,64.56
2016-06-12T16:40:01.041Z,64.37
2016-06-12T16:41:01.044Z,64.37
2016-06-12T16:42:01.047Z,64.37
2016-06-12T16:43:00.846Z,64.37
2016-06-12T16:44:00.849Z,64.37
2016-06-12T16:45:00.852Z,64.56
2016-06-12T16:46:00.840Z,64.66
2016-06-12T16:47:00.843Z,64.27
2016-06-12T16:48:00.861Z,64.47
2016-06-12T16:49:01.052Z,64.37
2016-06-12T16:50:01.056Z,64.37
2016-06-12T16:51:00.652Z,64.56
2016-06-12T16:52:00.858Z,64.47
2016-06-12T16:53:01.049Z,64.56
2016-06-12T16:54:01.662Z,64.66
2016-06-12T16:55:00.665Z,64.66
2016-06-12T16:56:01.058Z,64.56
2016-06-12T16:57:00.858Z,64.66
2016-06-12T16:58:00.658Z,64.66
2016-06-12T16:59:00.505Z,64.47
2016-06-12T17:00:00.648Z,64.56
2016-06-12T17:01:00.870Z,64.43
2016-06-12T17:02:00.671Z,64.53
2016-06-12T17:03:01.079Z,64.37
2016-06-12T17:04:00.661Z,64.47
2016-06-12T17:05:01.071Z,64.56
2016-06-12T17:06:00.871Z,64.66
2016-06-12T17:07:00.873Z,64.85
2016-06-12T17:08:00.877Z,64.72
2016-06-12T17:09:00.692Z,64.63
2016-06-12T17:10:00.929Z,64.85
2016-06-12T17:11:00.682Z,64.82
2016-06-12T17:12:00.873Z,64.76
2016-06-12T17:13:00.876Z,64.63
2016-06-12T17:14:01.099Z,64.53
2016-06-12T17:15:00.882Z,64.82
2016-06-12T17:16:01.104Z,64.82
2016-06-12T17:17:00.889Z,64.72
2016-06-12T17:18:01.095Z,64.53
2016-06-12T17:19:01.097Z,64.82
2016-06-12T17:20:00.882Z,64.63
2016-06-12T17:21:00.932Z,64.63
2016-06-12T17:22:01.091Z,64.92
2016-06-12T17:23:00.890Z,64.82
2016-06-12T17:24:01.316Z,64.92
2016-06-12T17:25:00.912Z,64.92
2016-06-12T17:26:01.103Z,64.92
2016-06-12T17:27:01.091Z,64.53
2016-06-12T17:28:00.688Z,64.72
2016-06-12T17:29:00.909Z,64.53
2016-06-12T17:30:00.898Z,64.63
2016-06-12T17:31:00.901Z,64.63
2016-06-12T17:32:01.106Z,64.82
2016-06-12T17:33:00.906Z,64.72
2016-06-12T17:34:01.113Z,64.53
2016-06-12T17:35:00.912Z,64.72
2016-06-12T17:36:01.119Z,64.72
2016-06-12T17:37:00.919Z,64.72
2016-06-12T17:38:01.109Z,64.72
2016-06-12T17:39:01.690Z,64.63
2016-06-12T17:40:01.396Z,65.01
2016-06-12T17:41:00.915Z,65.4
2016-06-12T17:42:00.918Z,65.4
2016-06-12T17:43:00.922Z,64.92
2016-06-12T17:44:00.955Z,64.92
2016-06-12T17:45:00.755Z,64.72
2016-06-12T17:46:00.712Z,65.01
2016-06-12T17:47:00.917Z,64.72
2016-06-12T17:48:01.124Z,65.3
2016-06-12T17:49:00.924Z,65.3
2016-06-12T17:50:00.927Z,64.53
2016-06-12T17:51:00.930Z,65.2
2016-06-12T17:52:00.729Z,65.3
2016-06-12T17:53:01.124Z,64.43
2016-06-12T17:54:01.049Z,64.72
2016-06-12T17:55:01.130Z,64.72
2016-06-12T17:56:00.977Z,64.72
2016-06-12T17:57:00.730Z,65.01
2016-06-12T17:58:00.983Z,64.63
2016-06-12T17:59:01.142Z,64.82
2016-06-12T18:00:01.162Z,64.82
2016-06-12T18:01:00.946Z,65.3
2016-06-12T18:02:00.948Z,65.3
2016-06-12T18:03:00.936Z,64.82
2016-06-12T18:04:01.158Z,64.63
2016-06-12T18:05:00.739Z,64.82
2016-06-12T18:06:01.148Z,65.01
2016-06-12T18:07:00.948Z,65.01
2016-06-12T18:08:01.155Z,64.92
2016-06-12T18:09:01.158Z,65.01
2016-06-12T18:10:01.208Z,65.11
2016-06-12T18:11:00.757Z,65.01
2016-06-12T18:12:01.152Z,65.11
2016-06-12T18:13:01.155Z,64.92
2016-06-12T18:14:00.750Z,65.01
2016-06-12T18:15:01.160Z,64.92
2016-06-12T18:16:00.961Z,65.01
2016-06-12T18:17:00.760Z,65.11
2016-06-12T18:18:00.951Z,64.92
2016-06-12T18:19:00.751Z,65.11
2016-06-12T18:20:01.160Z,64.92
2016-06-12T18:21:00.770Z,64.82
2016-06-12T18:22:01.015Z,64.82
2016-06-12T18:23:01.277Z,65.01
2016-06-12T18:24:01.569Z,64.92
2016-06-12T18:25:01.346Z,64.92
2016-06-12T18:26:01.395Z,64.82
2016-06-12T18:27:01.381Z,64.82
2016-06-12T18:28:01.194Z,65.11
2016-06-12T18:29:01.228Z,65.01
2016-06-12T18:30:01.229Z,65.01
2016-06-12T18:31:01.026Z,65.2
2016-06-12T18:32:01.252Z,65.2
2016-06-12T18:33:01.245Z,64.92
2016-06-12T18:34:01.269Z,64.92
2016-06-12T18:35:01.262Z,65.3
2016-06-12T18:36:01.270Z,65.2
2016-06-12T18:37:01.275Z,65.2
2016-06-12T18:38:01.482Z,65.01
2016-06-12T18:39:01.081Z,65.5
2016-06-12T18:40:01.133Z,65.47
2016-06-12T18:41:01.091Z,65.27
2016-06-12T18:42:01.485Z,65.2
2016-06-12T18:43:01.348Z,65.5
2016-06-12T18:44:01.491Z,65.59
2016-06-12T18:45:01.495Z,65.01
2016-06-12T18:46:01.498Z,65.4
2016-06-12T18:47:01.299Z,65.01
2016-06-12T18:48:01.286Z,65.11
2016-06-12T18:49:01.087Z,65.11
2016-06-12T18:50:01.310Z,65.01
2016-06-12T18:51:01.500Z,65.3
2016-06-12T18:52:01.503Z,65.11
2016-06-12T18:53:01.303Z,65.3
2016-06-12T18:54:01.931Z,65.3
2016-06-12T18:55:01.497Z,65.3
2016-06-12T18:56:01.297Z,65.3
2016-06-12T18:57:01.503Z,65.78
2016-06-12T18:58:01.100Z,65.78
2016-06-12T18:59:01.103Z,65.2
2016-06-12T19:00:01.512Z,65.56
2016-06-12T19:01:01.110Z,65.27
2016-06-12T19:02:01.518Z,65.3
2016-06-12T19:03:01.522Z,65.3
2016-06-12T19:04:01.102Z,65.27
2016-06-12T19:05:01.512Z,65.3
2016-06-12T19:06:01.312Z,65.4
2016-06-12T19:07:01.315Z,65.3
2016-06-12T19:08:01.302Z,65.37
2016-06-12T19:09:02.180Z,65.59
2016-06-12T19:10:01.527Z,65.56
2016-06-12T19:11:01.327Z,65.78
2016-06-12T19:12:01.315Z,65.27
2016-06-12T19:13:01.114Z,65.59
2016-06-12T19:14:01.322Z,65.56
2016-06-12T19:15:01.371Z,65.56
2016-06-12T19:16:01.327Z,65.47
2016-06-12T19:17:01.331Z,65.47
2016-06-12T19:18:01.537Z,65.37
2016-06-12T19:19:01.132Z,65.37
2016-06-12T19:20:01.527Z,65.27
2016-06-12T19:21:01.530Z,65.47
2016-06-12T19:22:01.533Z,65.47
2016-06-12T19:23:01.130Z,65.27
2016-06-12T19:24:01.539Z,65.47
2016-06-12T19:25:01.995Z,65.47
2016-06-12T19:26:01.529Z,65.56
2016-06-12T19:27:01.345Z,65.47
2016-06-12T19:28:01.535Z,65.37
2016-06-12T19:29:01.335Z,65.56
2016-06-12T19:30:01.339Z,65.56
2016-06-12T19:31:01.341Z,65.47
2016-06-12T19:32:01.141Z,65.47
2016-06-12T19:33:01.129Z,65.27
2016-06-12T19:34:01.132Z,65.17
2016-06-12T19:35:01.339Z,65.47
2016-06-12T19:36:01.342Z,65.37
2016-06-12T19:37:01.345Z,65.17
2016-06-12T19:38:00.988Z,65.37
2016-06-12T19:39:01.149Z,65.47
2016-06-12T19:40:01.354Z,65.37
2016-06-12T19:41:01.342Z,65.17
2016-06-12T19:42:01.360Z,65.17
2016-06-12T19:43:01.394Z,65.17
2016-06-12T19:44:01.335Z,65.37
2016-06-12T19:45:01.353Z,65.56
2016-06-12T19:46:01.544Z,65.17
2016-06-12T19:47:01.141Z,65.37
2016-06-12T19:48:01.347Z,65.66
2016-06-12T19:49:01.553Z,65.47
2016-06-12T19:50:01.557Z,65.56
2016-06-12T19:51:01.560Z,65.56
2016-06-12T19:52:01.563Z,65.37
2016-06-12T19:53:01.144Z,65.75
2016-06-12T19:54:01.365Z,65.56
2016-06-12T19:55:02.182Z,65.75
2016-06-12T19:56:01.356Z,65.75
2016-06-12T19:57:01.562Z,65.27
2016-06-12T19:58:01.362Z,65.56
2016-06-12T19:59:01.552Z,65.66
2016-06-12T20:00:01.166Z,65.56
2016-06-12T20:01:01.169Z,65.75
2016-06-12T20:02:01.359Z,65.56
2016-06-12T20:03:01.580Z,65.56
2016-06-12T20:04:01.350Z,65.56
2016-06-12T20:05:01.571Z,65.75
2016-06-12T20:06:01.574Z,65.66
2016-06-12T20:07:01.577Z,65.66
2016-06-12T20:08:01.362Z,65.66
2016-06-12T20:09:01.161Z,65.75
2016-06-12T20:10:01.227Z,65.66
2016-06-12T20:11:01.575Z,65.66
2016-06-12T20:12:01.375Z,65.56
2016-06-12T20:13:01.378Z,65.56
2016-06-12T20:14:01.364Z,65.56
2016-06-12T20:15:01.587Z,65.56
2016-06-12T20:16:01.168Z,65.66
2016-06-12T20:17:01.577Z,65.75
2016-06-12T20:18:01.377Z,65.75
2016-06-12T20:19:01.583Z,65.56
2016-06-12T20:20:01.383Z,65.85
2016-06-12T20:21:01.183Z,65.75
2016-06-12T20:22:01.592Z,65.47
2016-06-12T20:23:01.377Z,65.75
2016-06-12T20:24:01.379Z,65.63
2016-06-12T20:25:01.711Z,65.72
2016-06-12T20:26:01.229Z,65.63
2016-06-12T20:27:01.577Z,65.72
2016-06-12T20:28:01.392Z,65.63
2016-06-12T20:29:01.598Z,65.43
2016-06-12T20:30:01.383Z,65.63
2016-06-12T20:31:01.386Z,65.53
2016-06-12T20:32:01.592Z,65.53
2016-06-12T20:33:01.392Z,65.63
2016-06-12T20:34:01.598Z,66.01
2016-06-12T20:35:01.398Z,65.63
2016-06-12T20:36:01.385Z,65.82
2016-06-12T20:37:01.389Z,65.72
2016-06-12T20:38:01.188Z,65.82
2016-06-12T20:39:01.597Z,65.91
2016-06-12T20:40:01.398Z,66.01
2016-06-12T20:41:01.417Z,65.91
2016-06-12T20:42:01.184Z,65.82
2016-06-12T20:43:01.640Z,66.01
2016-06-12T20:44:01.394Z,65.72
2016-06-12T20:45:01.194Z,65.91
2016-06-12T20:46:01.604Z,65.82
2016-06-12T20:47:01.403Z,65.63
2016-06-12T20:48:01.611Z,65.53
2016-06-12T20:49:01.597Z,65.72
2016-06-12T20:50:01.398Z,65.53
2016-06-12T20:51:01.401Z,65.63
2016-06-12T20:52:01.404Z,65.63
2016-06-12T20:53:01.204Z,65.91
2016-06-12T20:54:01.393Z,65.63
2016-06-12T20:55:01.396Z,65.91
2016-06-12T20:56:01.400Z,65.43
2016-06-12T20:57:01.606Z,65.91
2016-06-12T20:58:01.608Z,65.72
2016-06-12T20:59:01.206Z,65.72
2016-06-12T21:00:01.397Z,65.82
2016-06-12T21:01:01.243Z,65.82
2016-06-12T21:02:01.215Z,65.82
2016-06-12T21:03:01.406Z,65.82
2016-06-12T21:04:01.410Z,65.91
2016-06-12T21:05:01.412Z,65.82
2016-06-12T21:06:01.415Z,65.82
2016-06-12T21:07:01.403Z,65.91
2016-06-12T21:08:01.422Z,65.91
2016-06-12T21:09:01.612Z,65.82
2016-06-12T21:10:01.615Z,66.11
2016-06-12T21:11:01.618Z,65.82
2016-06-12T21:12:01.418Z,65.82
2016-06-12T21:13:01.421Z,65.91
2016-06-12T21:14:01.627Z,65.91
2016-06-12T21:15:01.427Z,65.91
2016-06-12T21:16:01.430Z,65.82
2016-06-12T21:17:01.620Z,65.63
2016-06-12T21:18:01.420Z,65.63
2016-06-12T21:19:01.424Z,65.72
2016-06-12T21:20:01.427Z,66.11
2016-06-12T21:21:01.212Z,65.63
2016-06-12T21:22:01.620Z,65.63
2016-06-12T21:23:01.421Z,65.72
2016-06-12T21:24:01.627Z,65.82
2016-06-12T21:25:01.630Z,65.82
2016-06-12T21:26:01.430Z,65.91
2016-06-12T21:27:01.214Z,65.72
2016-06-12T21:28:01.420Z,65.82
2016-06-12T21:29:01.423Z,65.91
2016-06-12T21:30:01.426Z,65.72
2016-06-12T21:31:01.227Z,65.91
2016-06-12T21:32:01.433Z,66.01
2016-06-12T21:33:01.624Z,66.11
2016-06-12T21:34:01.627Z,65.82
2016-06-12T21:35:01.629Z,65.91
2016-06-12T21:36:01.226Z,66.11
2016-06-12T21:37:01.636Z,65.91
2016-06-12T21:38:01.638Z,65.82
2016-06-12T21:39:01.438Z,65.91
2016-06-12T21:40:01.270Z,65.91
2016-06-12T21:41:01.304Z,66.01
2016-06-12T21:42:01.651Z,65.91
2016-06-12T21:43:01.483Z,65.72
2016-06-12T21:44:01.641Z,66.01
2016-06-12T21:45:01.425Z,65.82
2016-06-12T21:46:01.241Z,65.82
2016-06-12T21:47:01.229Z,65.82
2016-06-12T21:48:01.638Z,65.72
2016-06-12T21:49:01.234Z,66.01
2016-06-12T21:50:01.644Z,65.91
2016-06-12T21:51:01.647Z,65.82
2016-06-12T21:52:01.635Z,65.72
2016-06-12T21:53:01.638Z,65.91
2016-06-12T21:54:01.438Z,66.01
2016-06-12T21:55:01.456Z,66.49
2016-06-12T21:56:01.444Z,66.01
2016-06-12T21:57:01.228Z,66.01
2016-06-12T21:58:01.451Z,65.82
2016-06-12T21:59:01.641Z,65.91
2016-06-12T22:00:01.440Z,66.49
2016-06-12T22:01:01.646Z,65.91
2016-06-12T22:02:01.291Z,65.91
2016-06-12T22:03:01.450Z,65.91
2016-06-12T22:04:01.656Z,65.88
2016-06-12T22:05:01.643Z,65.82
2016-06-12T22:06:01.646Z,65.88
2016-06-12T22:07:01.462Z,65.82
2016-06-12T22:08:01.449Z,65.91
2016-06-12T22:09:01.640Z,65.88
2016-06-12T22:10:01.644Z,65.91
2016-06-12T22:11:01.240Z,65.88
2016-06-12T22:12:01.446Z,65.88
2016-06-12T22:13:01.449Z,65.98
2016-06-12T22:14:01.249Z,65.88
2016-06-12T22:15:01.253Z,65.78
2016-06-12T22:16:01.662Z,65.98
2016-06-12T22:17:01.649Z,65.91
2016-06-12T22:18:01.448Z,65.88
2016-06-12T22:19:01.452Z,65.88
2016-06-12T22:20:01.658Z,66.01
2016-06-12T22:21:01.646Z,65.78
2016-06-12T22:22:01.445Z,65.78
2016-06-12T22:23:01.652Z,65.98
2016-06-12T22:24:01.655Z,66.56
2016-06-12T22:25:02.345Z,65.98
2016-06-12T22:26:01.474Z,65.98
2016-06-12T22:27:01.446Z,65.98
2016-06-12T22:28:01.667Z,65.88
2016-06-12T22:29:01.655Z,65.91
2016-06-12T22:30:01.252Z,65.88
2016-06-12T22:31:01.661Z,65.88
2016-06-12T22:32:01.461Z,65.82
2016-06-12T22:33:01.510Z,65.78
2016-06-12T22:34:01.451Z,65.98
2016-06-12T22:35:01.454Z,65.69
2016-06-12T22:36:01.457Z,65.78
2016-06-12T22:37:01.257Z,65.88